createdAt,value
2023-07-01T00:01:53.512Z,20.22
2023-07-01T00:04:21.818Z,20.27
2023-07-01T00:06:50.067Z,20.31
2023-07-01T00:09:19.524Z,20.14
2023-07-01T00:11:47.563Z,20.10
2023-07-01T00:14:15.591Z,19.72
2023-07-01T00:16:43.648Z,19.92
2023-07-01T00:19:11.729Z,19.65
2023-07-01T00:21:39.741Z,19.36
2023-07-01T00:24:08.200Z,19.18
2023-07-01T00:26:38.215Z,19.19
2023-07-01T00:29:06.253Z,19.18
2023-07-01T00:31:34.472Z,19.25
2023-07-01T00:34:02.546Z,19.34
2023-07-01T00:36:30.610Z,19.24
2023-07-01T00:38:58.610Z,19.45
2023-07-01T00:41:26.647Z,18.54
2023-07-01T00:43:56.550Z,19.63
2023-07-01T00:46:24.970Z,19.50
2023-07-01T00:48:53.199Z,19.49
2023-07-01T00:51:21.598Z,19.50
2023-07-01T00:53:49.992Z,19.35
2023-07-01T00:56:17.949Z,19.48
2023-07-01T00:58:45.991Z,19.53
2023-07-01T01:01:20.437Z,19.62
2023-07-01T01:03:55.098Z,19.73
2023-07-01T01:06:34.884Z,19.51
2023-07-01T01:09:11.633Z,19.23
2023-07-01T01:11:43.678Z,19.38
2023-07-01T01:14:14.662Z,19.57
2023-07-01T01:16:46.200Z,19.24
2023-07-01T01:19:22.509Z,19.28
2023-07-01T01:21:57.893Z,19.18
2023-07-01T01:24:30.464Z,19.35
2023-07-01T01:27:01.674Z,18.80
2023-07-01T01:29:31.131Z,18.86
2023-07-01T01:31:59.162Z,19.02
2023-07-01T01:34:27.616Z,19.12
2023-07-01T01:36:58.917Z,18.93
2023-07-01T01:39:30.291Z,18.03
2023-07-01T01:42:09.671Z,18.32
2023-07-01T01:44:46.514Z,18.08
2023-07-01T01:47:17.751Z,18.85
2023-07-01T01:49:46.729Z,18.71
2023-07-01T01:52:18.112Z,18.28
2023-07-01T01:54:47.538Z,18.39
2023-07-01T01:57:16.891Z,18.51
2023-07-01T01:59:47.029Z,18.54
2023-07-01T02:02:15.811Z,18.38
2023-07-01T02:04:43.952Z,18.28
2023-07-01T02:07:12.133Z,18.20
2023-07-01T02:09:40.195Z,18.38
2023-07-01T02:12:08.807Z,18.46
2023-07-01T02:14:36.871Z,18.45
2023-07-01T02:17:07.130Z,18.45
2023-07-01T02:19:35.252Z,18.39
2023-07-01T02:22:03.318Z,18.21
2023-07-01T02:24:31.388Z,18.13
2023-07-01T02:27:00.619Z,18.23
2023-07-01T02:29:28.614Z,18.06
2023-07-01T02:31:56.677Z,18.08
2023-07-01T02:34:28.552Z,18.23
2023-07-01T02:36:56.639Z,18.37
2023-07-01T02:39:24.823Z,18.22
2023-07-01T02:41:53.926Z,18.00
2023-07-01T02:44:22.007Z,18.07
2023-07-01T02:46:50.113Z,17.93
2023-07-01T02:49:18.230Z,18.13
2023-07-01T02:51:47.786Z,18.09
2023-07-01T02:54:15.896Z,18.36
2023-07-01T02:56:44.846Z,18.16
2023-07-01T02:59:13.020Z,18.13
2023-07-01T03:01:41.847Z,18.21
2023-07-01T03:04:20.659Z,18.27
2023-07-01T03:06:50.930Z,18.41
2023-07-01T03:09:19.053Z,18.31
2023-07-01T03:11:47.308Z,18.27
2023-07-01T03:14:15.329Z,18.34
2023-07-01T03:16:43.724Z,18.16
2023-07-01T03:19:11.833Z,18.06
2023-07-01T03:21:40.564Z,17.98
2023-07-01T03:24:10.043Z,18.18
2023-07-01T03:26:38.110Z,18.13
2023-07-01T03:29:06.494Z,18.04
2023-07-01T03:31:35.122Z,18.18
2023-07-01T03:34:03.246Z,18.15
2023-07-01T03:36:31.638Z,18.14
2023-07-01T03:39:00.332Z,18.11
2023-07-01T03:41:30.259Z,18.31
2023-07-01T03:43:58.304Z,18.37
2023-07-01T03:46:26.489Z,18.28
2023-07-01T03:48:56.312Z,18.33
2023-07-01T03:51:24.775Z,18.37
2023-07-01T03:53:53.121Z,18.31
2023-07-01T03:56:21.159Z,18.75
2023-07-01T03:58:52.807Z,18.74
2023-07-01T04:01:24.849Z,18.95
2023-07-01T04:03:55.094Z,19.01
2023-07-01T04:06:23.211Z,18.90
2023-07-01T04:08:56.791Z,18.99
2023-07-01T04:11:25.724Z,19.12
2023-07-01T04:13:55.273Z,19.20
2023-07-01T04:16:23.300Z,19.11
2023-07-01T04:18:51.319Z,19.04
2023-07-01T04:21:19.295Z,19.14
2023-07-01T04:23:47.322Z,19.12
2023-07-01T04:26:15.392Z,19.19
2023-07-01T04:28:43.540Z,19.32
2023-07-01T04:31:13.030Z,19.49
2023-07-01T04:33:41.100Z,19.42
2023-07-01T04:36:09.285Z,19.55
2023-07-01T04:38:37.367Z,19.54
2023-07-01T04:41:06.675Z,19.49
2023-07-01T04:43:35.214Z,19.73
2023-07-01T04:46:04.839Z,19.65
2023-07-01T04:48:34.224Z,19.75
2023-07-01T04:51:02.289Z,20.02
2023-07-01T04:53:30.486Z,20.09
2023-07-01T04:55:58.452Z,20.31
2023-07-01T04:58:26.680Z,20.42
2023-07-01T05:00:54.779Z,20.00
2023-07-01T05:03:22.813Z,20.48
2023-07-01T05:05:52.305Z,20.55
2023-07-01T05:08:20.405Z,20.72
2023-07-01T05:10:48.772Z,20.75
2023-07-01T05:13:17.016Z,20.26
2023-07-01T05:15:45.110Z,21.14
2023-07-01T05:18:13.172Z,21.56
2023-07-01T05:20:43.202Z,22.05
2023-07-01T05:23:12.863Z,22.47
2023-07-01T05:25:40.895Z,23.22
2023-07-01T05:28:08.942Z,23.61
2023-07-01T05:30:38.176Z,23.65
2023-07-01T05:33:06.335Z,23.92
2023-07-01T05:35:34.433Z,24.21
2023-07-01T05:38:09.004Z,24.70
2023-07-01T05:40:38.477Z,25.02
2023-07-01T05:43:07.358Z,25.13
2023-07-01T05:45:35.811Z,25.72
2023-07-01T05:48:03.935Z,25.87
2023-07-01T05:50:32.051Z,26.74
2023-07-01T05:53:00.177Z,27.03
2023-07-01T05:55:28.151Z,27.49
2023-07-01T05:57:57.737Z,27.69
2023-07-01T06:00:26.017Z,27.43
2023-07-01T06:02:54.319Z,26.57
2023-07-01T06:05:22.429Z,27.69
2023-07-01T06:07:50.615Z,28.03
2023-07-01T06:10:19.026Z,27.95
2023-07-01T06:12:49.773Z,28.18
2023-07-01T06:15:19.368Z,28.26
2023-07-01T06:17:47.521Z,28.26
2023-07-01T06:20:15.626Z,28.45
2023-07-01T06:22:43.740Z,28.38
2023-07-01T06:25:12.389Z,27.57
2023-07-01T06:27:40.360Z,27.25
2023-07-01T06:30:09.880Z,27.47
2023-07-01T06:32:39.349Z,27.71
2023-07-01T06:35:07.936Z,27.41
2023-07-01T06:37:46.260Z,27.90
2023-07-01T06:40:26.069Z,28.13
2023-07-01T06:43:09.593Z,27.80
2023-07-01T06:45:40.272Z,27.61
2023-07-01T06:48:09.977Z,27.67
2023-07-01T06:50:38.069Z,27.88
2023-07-01T06:53:06.677Z,28.86
2023-07-01T06:55:34.982Z,28.99
2023-07-01T06:58:04.338Z,28.86
2023-07-01T07:00:32.644Z,28.70
2023-07-01T07:03:01.914Z,28.93
2023-07-01T07:05:31.464Z,29.40
2023-07-01T07:07:59.526Z,29.23
2023-07-01T07:10:27.538Z,28.91
2023-07-01T07:12:55.565Z,29.24
2023-07-01T07:15:23.577Z,30.02
2023-07-01T07:17:51.741Z,29.18
2023-07-01T07:20:20.151Z,29.43
2023-07-01T07:22:49.591Z,29.84
2023-07-01T07:25:18.208Z,30.35
2023-07-01T07:27:46.436Z,30.30
2023-07-01T07:30:15.645Z,30.98
2023-07-01T07:32:45.035Z,30.92
2023-07-01T07:35:13.222Z,31.39
2023-07-01T07:37:41.327Z,31.61
2023-07-01T07:40:11.978Z,31.00
2023-07-01T07:42:40.269Z,31.11
2023-07-01T07:45:09.074Z,31.12
2023-07-01T07:47:37.181Z,30.76
2023-07-01T07:50:07.662Z,31.24
2023-07-01T07:52:35.829Z,31.12
2023-07-01T07:55:03.873Z,31.34
2023-07-01T07:57:33.315Z,31.38
2023-07-01T08:00:01.898Z,31.30
2023-07-01T08:02:30.073Z,31.40
2023-07-01T08:05:00.924Z,31.65
2023-07-01T08:07:29.161Z,30.96
2023-07-01T08:09:57.117Z,31.29
2023-07-01T08:12:25.096Z,31.66
2023-07-01T08:14:54.569Z,31.16
2023-07-01T08:17:22.550Z,31.95
2023-07-01T08:19:50.799Z,32.10
2023-07-01T08:22:19.522Z,31.18
2023-07-01T08:24:47.680Z,31.43
2023-07-01T08:27:15.833Z,31.69
2023-07-01T08:29:43.917Z,31.55
2023-07-01T08:32:13.278Z,32.16
2023-07-01T08:34:41.365Z,32.60
2023-07-01T08:37:09.366Z,32.14
2023-07-01T08:39:37.433Z,32.35
2023-07-01T08:42:06.523Z,32.62
2023-07-01T08:44:35.689Z,32.19
2023-07-01T08:47:05.041Z,32.97
2023-07-01T08:49:37.410Z,33.29
2023-07-01T08:52:08.188Z,33.04
2023-07-01T08:54:36.651Z,33.30
2023-07-01T08:57:05.432Z,33.56
2023-07-01T08:59:33.695Z,33.45
2023-07-01T09:02:02.931Z,33.94
2023-07-01T09:04:32.184Z,33.66
2023-07-01T09:07:02.166Z,33.92
2023-07-01T09:09:30.149Z,33.16
2023-07-01T09:11:58.223Z,33.38
2023-07-01T09:14:26.201Z,33.68
2023-07-01T09:16:55.018Z,33.29
2023-07-01T09:19:24.471Z,33.80
2023-07-01T09:21:52.637Z,33.90
2023-07-01T09:24:39.992Z,34.55
2023-07-01T09:27:10.208Z,34.55
2023-07-01T09:29:41.812Z,34.20
2023-07-01T09:32:10.761Z,33.98
2023-07-01T09:34:58.855Z,34.35
2023-07-01T09:37:27.689Z,33.20
2023-07-01T09:39:58.502Z,34.12
2023-07-01T09:42:26.570Z,34.08
2023-07-01T09:45:10.860Z,34.43
2023-07-01T09:47:39.375Z,34.61
2023-07-01T09:50:09.088Z,33.84
2023-07-01T09:52:38.679Z,33.66
2023-07-01T09:55:09.859Z,33.45
2023-07-01T09:57:39.317Z,33.56
2023-07-01T10:00:11.133Z,33.27
2023-07-01T10:02:39.651Z,33.36
2023-07-01T10:05:08.392Z,34.10
2023-07-01T10:07:36.441Z,34.30
2023-07-01T10:10:05.053Z,34.02
2023-07-01T10:12:35.001Z,34.87
2023-07-01T10:15:03.621Z,35.42
2023-07-01T10:17:47.355Z,35.90
2023-07-01T10:20:32.028Z,35.87
2023-07-01T10:23:01.680Z,34.60
2023-07-01T10:25:33.690Z,34.57
2023-07-01T10:28:13.047Z,34.66
2023-07-01T10:31:15.591Z,35.32
2023-07-01T10:33:56.171Z,35.74
2023-07-01T10:36:24.647Z,35.85
2023-07-01T10:38:53.056Z,35.53
2023-07-01T10:41:54.969Z,34.67
2023-07-01T10:44:26.681Z,35.06
2023-07-01T10:47:20.183Z,35.16
2023-07-01T10:50:09.071Z,35.93
2023-07-01T10:53:03.891Z,36.05
2023-07-01T10:55:41.420Z,34.87
2023-07-01T10:58:22.663Z,35.22
2023-07-01T11:00:53.898Z,35.96
2023-07-01T11:03:59.643Z,35.69
2023-07-01T11:06:27.761Z,36.78
2023-07-01T11:08:57.536Z,35.70
2023-07-01T11:11:27.738Z,35.24
2023-07-01T11:13:57.569Z,34.85
2023-07-01T11:16:28.089Z,35.47
2023-07-01T11:18:57.781Z,35.21
2023-07-01T11:21:27.248Z,35.14
2023-07-01T11:23:56.801Z,34.51
2023-07-01T11:26:27.908Z,34.26
2023-07-01T11:28:56.009Z,33.99
2023-07-01T11:31:27.297Z,33.05
2023-07-01T11:33:56.826Z,33.40
2023-07-01T11:36:36.072Z,34.26
2023-07-01T11:39:09.413Z,34.61
2023-07-01T11:41:39.960Z,35.00
2023-07-01T11:44:09.760Z,35.02
2023-07-01T11:46:42.028Z,35.54
2023-07-01T11:49:14.818Z,35.71
2023-07-01T11:51:45.251Z,36.07
2023-07-01T11:54:14.906Z,35.68
2023-07-01T11:56:44.278Z,34.62
2023-07-01T11:59:12.606Z,34.71
2023-07-01T12:01:43.180Z,35.37
2023-07-01T12:04:19.422Z,34.94
2023-07-01T12:06:48.012Z,33.65
2023-07-01T12:09:29.875Z,34.37
2023-07-01T12:11:58.076Z,34.28
2023-07-01T12:14:27.026Z,33.88
2023-07-01T12:16:57.098Z,33.03
2023-07-01T12:19:26.520Z,34.21
2023-07-01T12:21:55.700Z,34.90
2023-07-01T12:24:25.462Z,34.85
2023-07-01T12:26:55.256Z,35.01
2023-07-01T12:29:24.200Z,34.29
2023-07-01T12:31:54.976Z,33.47
2023-07-01T12:34:24.731Z,33.18
2023-07-01T12:36:53.026Z,33.39
2023-07-01T12:39:21.138Z,33.36
2023-07-01T12:41:54.211Z,32.47
2023-07-01T12:44:22.318Z,32.46
2023-07-01T12:46:50.365Z,32.66
2023-07-01T12:49:19.382Z,33.20
2023-07-01T12:51:48.803Z,33.14
2023-07-01T12:54:18.606Z,33.03
2023-07-01T12:56:47.477Z,32.89
2023-07-01T12:59:15.683Z,32.99
2023-07-01T13:01:46.718Z,32.90
2023-07-01T13:04:18.014Z,33.42
2023-07-01T13:06:46.947Z,34.33
2023-07-01T13:09:20.072Z,35.35
2023-07-01T13:11:49.027Z,35.62
2023-07-01T13:14:17.244Z,35.96
2023-07-01T13:16:45.787Z,35.68
2023-07-01T13:19:15.944Z,35.35
2023-07-01T13:21:45.420Z,35.65
2023-07-01T13:24:17.402Z,34.64
2023-07-01T13:26:48.434Z,34.77
2023-07-01T13:29:19.197Z,34.77
2023-07-01T13:31:49.113Z,34.09
2023-07-01T13:34:19.986Z,34.12
2023-07-01T13:36:52.561Z,33.81
2023-07-01T13:39:27.253Z,32.56
2023-07-01T13:42:01.789Z,32.85
2023-07-01T13:44:30.545Z,32.68
2023-07-01T13:46:58.864Z,33.37
2023-07-01T13:49:30.451Z,33.19
2023-07-01T13:51:58.730Z,33.00
2023-07-01T13:54:28.127Z,32.87
2023-07-01T13:56:59.588Z,32.55
2023-07-01T13:59:31.572Z,32.36
2023-07-01T14:02:02.782Z,32.27
2023-07-01T14:04:33.323Z,32.22
2023-07-01T14:07:01.902Z,32.36
2023-07-01T14:09:31.249Z,32.42
2023-07-01T14:12:01.612Z,32.25
2023-07-01T14:14:31.546Z,32.12
2023-07-01T14:17:00.494Z,31.85
2023-07-01T14:19:28.962Z,31.73
2023-07-01T14:21:58.594Z,31.62
2023-07-01T14:24:29.562Z,31.82
2023-07-01T14:27:01.262Z,31.59
2023-07-01T14:29:30.090Z,31.17
2023-07-01T14:31:59.039Z,31.42
2023-07-01T14:34:33.423Z,31.21
2023-07-01T14:37:03.831Z,31.14
2023-07-01T14:39:46.206Z,30.89
2023-07-01T14:42:24.262Z,30.85
2023-07-01T14:44:53.119Z,30.87
2023-07-01T14:47:21.248Z,30.98
2023-07-01T14:49:49.586Z,30.96
2023-07-01T14:52:19.925Z,31.14
2023-07-01T14:54:55.127Z,31.14
2023-07-01T14:57:24.621Z,31.16
2023-07-01T14:59:52.795Z,31.03
2023-07-01T15:02:21.172Z,30.97
2023-07-01T15:04:49.280Z,30.98
2023-07-01T15:07:17.323Z,31.01
2023-07-01T15:09:45.343Z,30.90
2023-07-01T15:12:13.375Z,30.88
2023-07-01T15:14:42.804Z,31.05
2023-07-01T15:17:11.036Z,31.00
2023-07-01T15:19:39.292Z,31.13
2023-07-01T15:22:07.364Z,31.03
2023-07-01T15:24:35.471Z,31.06
2023-07-01T15:27:03.549Z,31.01
2023-07-01T15:29:32.099Z,30.78
2023-07-01T15:32:01.938Z,31.01
2023-07-01T15:34:30.280Z,31.03
2023-07-01T15:36:58.760Z,30.95
2023-07-01T15:39:27.784Z,30.89
2023-07-01T15:41:57.268Z,31.10
2023-07-01T15:44:30.270Z,30.97
2023-07-01T15:46:59.010Z,31.03
2023-07-01T15:49:30.699Z,30.99
2023-07-01T15:51:59.066Z,31.06
2023-07-01T15:54:27.548Z,31.05
2023-07-01T15:56:56.915Z,31.26
2023-07-01T15:59:26.354Z,31.27
2023-07-01T16:01:55.705Z,31.01
2023-07-01T16:04:23.780Z,30.81
2023-07-01T16:06:53.227Z,30.54
2023-07-01T16:10:01.857Z,30.46
2023-07-01T16:12:34.846Z,30.20
2023-07-01T16:15:06.593Z,29.66
2023-07-01T16:17:35.831Z,28.51
2023-07-01T16:20:05.963Z,27.25
2023-07-01T16:22:35.640Z,26.76
2023-07-01T16:25:07.002Z,26.43
2023-07-01T16:27:35.860Z,26.15
2023-07-01T16:30:05.572Z,25.80
2023-07-01T16:32:33.925Z,25.47
2023-07-01T16:35:07.779Z,25.13
2023-07-01T16:37:37.611Z,25.51
2023-07-01T16:40:26.722Z,25.60
2023-07-01T16:42:55.425Z,25.03
2023-07-01T16:45:38.651Z,25.95
2023-07-01T16:48:08.804Z,25.92
2023-07-01T16:50:56.428Z,25.91
2023-07-01T16:53:26.055Z,26.22
2023-07-01T16:55:57.559Z,25.91
2023-07-01T16:58:36.279Z,25.89
2023-07-01T17:01:05.956Z,25.95
2023-07-01T17:03:35.409Z,25.87
2023-07-01T17:06:06.461Z,25.89
2023-07-01T17:08:35.927Z,25.85
2023-07-01T17:11:03.908Z,25.76
2023-07-01T17:13:33.393Z,25.64
2023-07-01T17:16:03.675Z,25.44
2023-07-01T17:18:36.280Z,24.87
2023-07-01T17:21:04.965Z,25.16
2023-07-01T17:23:33.098Z,25.20
2023-07-01T17:26:02.625Z,25.04
2023-07-01T17:28:33.355Z,25.05
2023-07-01T17:31:01.610Z,25.07
2023-07-01T17:33:29.716Z,25.37
2023-07-01T17:35:57.998Z,25.47
2023-07-01T17:38:27.138Z,25.58
2023-07-01T17:40:55.583Z,25.32
2023-07-01T17:43:25.862Z,25.02
2023-07-01T17:45:55.172Z,24.56
2023-07-01T17:48:23.186Z,24.38
2023-07-01T17:50:52.279Z,23.88
2023-07-01T17:53:20.303Z,24.19
2023-07-01T17:55:49.263Z,24.20
2023-07-01T17:58:17.489Z,23.78
2023-07-01T18:00:47.032Z,23.87
2023-07-01T18:03:15.174Z,23.53
2023-07-01T18:05:43.366Z,23.55
2023-07-01T18:08:11.850Z,23.52
2023-07-01T18:10:41.079Z,23.60
2023-07-01T18:13:09.217Z,23.56
2023-07-01T18:15:44.425Z,23.74
2023-07-01T18:18:14.441Z,23.74
2023-07-01T18:20:53.762Z,23.01
2023-07-01T18:23:23.519Z,23.07
2023-07-01T18:25:51.737Z,23.43
2023-07-01T18:28:19.812Z,23.29
2023-07-01T18:30:48.152Z,23.43
2023-07-01T18:33:17.992Z,23.48
2023-07-01T18:35:47.603Z,23.39
2023-07-01T18:38:16.115Z,23.71
2023-07-01T18:40:44.240Z,23.70
2023-07-01T18:43:12.591Z,23.58
2023-07-01T18:45:40.772Z,23.76
2023-07-01T18:48:08.879Z,23.67
2023-07-01T18:50:38.867Z,23.83
2023-07-01T18:53:06.891Z,23.78
2023-07-01T18:55:34.928Z,23.81
2023-07-01T18:58:03.436Z,23.73
2023-07-01T19:00:31.494Z,23.76
2023-07-01T19:02:59.973Z,23.75
2023-07-01T19:05:28.369Z,23.86
2023-07-01T19:07:57.998Z,23.89
2023-07-01T19:10:26.508Z,23.82
2023-07-01T19:12:54.592Z,23.70
2023-07-01T19:15:22.983Z,23.79
2023-07-01T19:17:51.073Z,23.79
2023-07-01T19:20:42.637Z,23.81
2023-07-01T19:23:13.002Z,23.71
2023-07-01T19:25:42.529Z,23.79
2023-07-01T19:28:12.780Z,23.76
2023-07-01T19:30:41.115Z,23.73
2023-07-01T19:33:09.244Z,23.62
2023-07-01T19:35:37.335Z,23.75
2023-07-01T19:38:05.381Z,23.75
2023-07-01T19:40:34.824Z,23.69
2023-07-01T19:43:02.892Z,23.75
2023-07-01T19:45:30.874Z,23.70
2023-07-01T19:47:58.880Z,23.66
2023-07-01T19:50:27.039Z,23.64
2023-07-01T19:52:55.271Z,23.46
2023-07-01T19:55:23.990Z,23.60
2023-07-01T19:57:53.609Z,23.62
2023-07-01T20:00:23.605Z,23.52
2023-07-01T20:02:52.651Z,23.45
2023-07-01T20:05:25.003Z,23.51
2023-07-01T20:07:53.291Z,23.58
2023-07-01T20:10:30.165Z,23.45
2023-07-01T20:13:00.893Z,23.66
2023-07-01T20:15:28.936Z,23.65
2023-07-01T20:17:57.141Z,23.54
2023-07-01T20:20:25.499Z,23.42
2023-07-01T20:22:53.706Z,23.39
2023-07-01T20:25:21.729Z,23.07
2023-07-01T20:27:50.045Z,22.98
2023-07-01T20:30:19.788Z,22.86
2023-07-01T20:32:47.958Z,22.79
2023-07-01T20:35:16.619Z,22.92
2023-07-01T20:37:44.687Z,23.01
2023-07-01T20:40:13.964Z,23.13
2023-07-01T20:42:45.289Z,23.10
2023-07-01T20:45:14.066Z,23.15
2023-07-01T20:47:43.973Z,23.25
2023-07-01T20:50:13.379Z,23.07
2023-07-01T20:52:41.518Z,23.29
2023-07-01T20:55:11.291Z,22.88
2023-07-01T20:57:39.381Z,22.77
2023-07-01T21:00:09.024Z,22.76
2023-07-01T21:02:37.396Z,23.01
2023-07-01T21:05:07.892Z,23.15
2023-07-01T21:07:35.959Z,23.08
2023-07-01T21:10:03.973Z,23.11
2023-07-01T21:12:32.039Z,23.08
2023-07-01T21:15:00.314Z,22.92
2023-07-01T21:17:31.515Z,22.85
2023-07-01T21:19:59.565Z,22.76
2023-07-01T21:22:29.885Z,22.69
2023-07-01T21:24:58.019Z,22.84
2023-07-01T21:28:01.300Z,22.71
2023-07-01T21:30:31.459Z,22.60
2023-07-01T21:32:59.435Z,22.74
2023-07-01T21:35:32.442Z,22.64
2023-07-01T21:38:03.657Z,22.54
2023-07-01T21:40:38.425Z,22.52
2023-07-01T21:43:17.720Z,22.65
2023-07-01T21:45:46.303Z,22.59
2023-07-01T21:48:16.142Z,22.27
2023-07-01T21:50:59.492Z,22.08
2023-07-01T21:53:36.732Z,21.96
2023-07-01T21:56:06.395Z,21.98
2023-07-01T21:58:39.409Z,21.95
2023-07-01T22:01:19.021Z,21.99
2023-07-01T22:03:47.479Z,22.13
2023-07-01T22:06:17.250Z,21.94
2023-07-01T22:08:47.987Z,21.96
2023-07-01T22:11:17.139Z,21.83
2023-07-01T22:13:45.967Z,21.85
2023-07-01T22:16:14.904Z,22.17
2023-07-01T22:18:43.321Z,22.13
2023-07-01T22:21:11.332Z,22.09
2023-07-01T22:23:39.490Z,22.14
2023-07-01T22:26:09.070Z,21.96
2023-07-01T22:28:37.358Z,21.86
2023-07-01T22:31:06.205Z,21.92
2023-07-01T22:33:34.290Z,21.99
2023-07-01T22:36:02.558Z,22.04
2023-07-01T22:38:30.647Z,22.06
2023-07-01T22:40:58.945Z,22.05
2023-07-01T22:43:28.780Z,21.96
2023-07-01T22:45:56.885Z,21.83
2023-07-01T22:48:24.871Z,21.74
2023-07-01T22:50:53.226Z,21.99
2023-07-01T22:53:21.607Z,21.73
2023-07-01T22:55:49.738Z,21.73
2023-07-01T22:58:17.771Z,21.91
2023-07-01T23:00:47.614Z,21.97
2023-07-01T23:03:15.988Z,21.83
2023-07-01T23:05:44.138Z,21.98
2023-07-01T23:08:12.277Z,21.94
2023-07-01T23:10:40.269Z,21.71
2023-07-01T23:13:08.241Z,21.53
2023-07-01T23:15:37.614Z,21.67
2023-07-01T23:18:07.232Z,21.75
2023-07-01T23:20:35.284Z,21.74
2023-07-01T23:23:04.228Z,21.76
2023-07-01T23:25:33.027Z,21.74
2023-07-01T23:28:11.293Z,21.79
2023-07-01T23:30:40.341Z,21.62
2023-07-01T23:33:11.110Z,21.18
2023-07-01T23:35:39.492Z,21.61
2023-07-01T23:38:07.625Z,21.08
2023-07-01T23:40:35.737Z,21.30
2023-07-01T23:43:03.921Z,20.80
2023-07-01T23:45:31.887Z,20.60
2023-07-01T23:47:59.924Z,20.72
2023-07-01T23:50:29.496Z,20.60
2023-07-01T23:52:57.474Z,20.64
2023-07-01T23:55:25.551Z,20.78
2023-07-01T23:57:53.592Z,20.72
